Time;durP1;ratioP1;P1;durP2;ratioP2;P2;SDS_P1;SDS_P2;PMS_P1;PMS_P2;Temp;Humidity;BMP_temperature;BMP_pressure;BME280_temperature;BME280_humidity;BME280_pressure;Samples;Min_cycle;Max_cycle;Signal;HPM_P1;HPM_P2
2022/11/21 00:02:02;;;;;;;21.58;11.27;;;;;;;1.67;78.69;99970.78;5028557;28;20049;-66
2022/11/21 00:04:30;;;;;;;23.80;10.77;;;;;;;1.85;78.56;99970.25;5021228;28;20040;-66
2022/11/21 00:06:57;;;;;;;24.73;12.13;;;;;;;1.90;78.28;99968.41;5047419;28;20040;-66
2022/11/21 00:09:23;;;;;;;21.95;11.13;;;;;;;2.38;76.42;99955.75;5048339;28;20075;-66
2022/11/21 00:11:51;;;;;;;19.95;11.05;;;;;;;2.49;75.54;99964.91;5038384;28;20048;-66
2022/11/21 00:14:17;;;;;;;22.85;11.40;;;;;;;2.34;76.65;99964.50;5047412;28;20057;-66
2022/11/21 00:16:46;;;;;;;23.20;11.43;;;;;;;1.72;78.76;99960.31;5049027;28;20063;-66
2022/11/21 00:19:12;;;;;;;23.38;11.48;;;;;;;1.78;79.04;99948.06;5048357;28;20500;-66
2022/11/21 00:21:39;;;;;;;23.20;11.00;;;;;;;1.80;79.99;99938.53;5047096;28;20040;-66
2022/11/21 00:24:06;;;;;;;21.17;10.63;;;;;;;1.92;79.11;99933.00;5054265;28;20044;-66
2022/11/21 00:26:32;;;;;;;22.17;11.40;;;;;;;1.74;79.49;99930.09;5045695;28;20044;-66
2022/11/21 00:28:59;;;;;;;25.45;12.25;;;;;;;1.49;81.40;99942.84;5053078;28;20048;-66
2022/11/21 00:31:25;;;;;;;23.30;11.65;;;;;;;2.13;78.56;99938.44;5048382;28;20532;-66
2022/11/21 00:33:53;;;;;;;29.70;13.20;;;;;;;2.40;77.08;99927.25;5037877;28;20055;-66
2022/11/21 00:36:19;;;;;;;25.40;12.48;;;;;;;2.24;77.90;99933.78;5046770;28;20048;-66
2022/11/21 00:38:46;;;;;;;28.77;13.40;;;;;;;2.19;78.13;99926.16;5047705;28;20044;-66
2022/11/21 00:41:12;;;;;;;24.67;11.27;;;;;;;2.24;78.67;99920.84;5037771;28;20048;-66
2022/11/21 00:43:39;;;;;;;26.80;11.93;;;;;;;1.79;79.50;99923.06;5047716;28;20040;-66
2022/11/21 00:46:05;;;;;;;26.02;12.05;;;;;;;1.43;81.33;99925.81;5035602;28;20041;-66
2022/11/21 00:48:32;;;;;;;24.65;11.10;;;;;;;2.09;79.72;99921.31;5018221;28;20056;-66
2022/11/21 00:51:00;;;;;;;25.77;12.60;;;;;;;2.12;79.16;99928.97;5026417;28;20048;-66
2022/11/21 00:53:27;;;;;;;25.70;12.55;;;;;;;2.36;78.63;99916.16;5028420;28;20052;-66
2022/11/21 00:55:53;;;;;;;26.52;12.43;;;;;;;2.49;77.60;99921.78;5025463;28;20056;-66
2022/11/21 00:58:19;;;;;;;22.13;11.45;;;;;;;2.57;77.49;99914.63;5035851;28;20394;-65
2022/11/21 01:00:46;;;;;;;21.52;10.95;;;;;;;2.77;76.88;99913.97;5040000;28;20052;-65
2022/11/21 01:03:12;;;;;;;24.73;11.50;;;;;;;2.87;76.48;99913.63;5038890;28;20055;-66
2022/11/21 01:05:39;;;;;;;21.67;10.93;;;;;;;2.83;76.25;99906.00;5047672;28;20052;-66
2022/11/21 01:08:07;;;;;;;24.27;12.27;;;;;;;2.92;76.32;99901.34;5048201;28;20072;-66
2022/11/21 01:10:34;;;;;;;23.48;12.13;;;;;;;3.03;75.71;99906.16;5037922;28;20393;-66
2022/11/21 01:13:00;;;;;;;25.25;11.98;;;;;;;2.97;75.80;99895.16;5050919;28;20526;-66
2022/11/21 01:15:27;;;;;;;23.17;11.13;;;;;;;2.86;75.76;99898.13;5052290;28;20041;-66
2022/11/21 01:17:53;;;;;;;26.85;12.52;;;;;;;2.92;75.69;99901.34;5042285;28;20048;-66
2022/11/21 01:20:20;;;;;;;25.85;12.48;;;;;;;2.90;75.96;99897.13;5050706;28;20446;-66
2022/11/21 01:22:46;;;;;;;22.73;10.60;;;;;;;2.93;76.04;99889.25;5052057;28;20551;-66
2022/11/21 01:25:14;;;;;;;23.25;11.85;;;;;;;2.72;76.46;99890.81;5050155;28;20488;-66
2022/11/21 01:27:41;;;;;;;23.85;12.00;;;;;;;2.59;77.20;99893.88;5059112;28;20047;-66
2022/11/21 01:30:09;;;;;;;28.17;11.77;;;;;;;2.66;77.11;99888.41;5050758;28;20059;-66
2022/11/21 01:32:35;;;;;;;22.05;10.68;;;;;;;2.80;76.74;99891.41;5042128;28;20040;-66
2022/11/21 01:35:02;;;;;;;25.13;12.00;;;;;;;2.74;76.95;99886.44;5051320;28;20245;-66
2022/11/21 01:37:28;;;;;;;23.90;10.98;;;;;;;2.85;76.52;99883.47;5055933;28;20052;-66
2022/11/21 01:39:55;;;;;;;23.90;12.00;;;;;;;2.84;76.33;99874.88;5053707;28;20077;-66
2022/11/21 01:42:22;;;;;;;28.88;12.68;;;;;;;2.62;77.01;99881.69;5050467;28;20093;-66
2022/11/21 01:44:52;;;;;;;24.75;11.43;;;;;;;2.54;77.87;99875.06;5051778;28;20049;-66
2022/11/21 01:47:19;;;;;;;22.77;11.20;;;;;;;2.63;77.42;99882.50;5042430;28;20052;-66
2022/11/21 01:49:47;;;;;;;24.38;11.93;;;;;;;2.79;77.23;99887.13;5050324;28;20040;-66
2022/11/21 01:52:18;;;;;;;22.77;11.32;;;;;;;2.76;76.94;99882.06;5051493;28;20040;-66
2022/11/21 01:54:51;;;;;;;23.38;11.50;;;;;;;2.73;77.08;99883.91;5050249;28;20127;-66
2022/11/21 01:57:22;;;;;;;22.40;11.57;;;;;;;2.64;77.31;99877.28;5058436;28;20056;-65
2022/11/21 01:59:56;;;;;;;28.95;12.40;;;;;;;2.73;76.63;99871.81;5051870;28;20076;-65
2022/11/21 02:02:25;;;;;;;23.20;12.25;;;;;;;2.82;77.08;99875.81;5050929;28;20052;-65
2022/11/21 02:04:52;;;;;;;24.83;12.30;;;;;;;2.56;77.47;99874.09;5051161;28;20667;-66
2022/11/21 02:07:22;;;;;;;22.23;12.02;;;;;;;2.58;77.85;99869.72;5041035;28;20041;-65
2022/11/21 02:09:51;;;;;;;22.73;11.35;;;;;;;2.71;77.79;99876.19;5049803;28;20051;-65
2022/11/21 02:12:23;;;;;;;24.13;12.80;;;;;;;2.78;77.08;99875.06;5047640;28;20561;-66
2022/11/21 02:14:52;;;;;;;20.87;11.07;;;;;;;2.85;76.88;99862.75;5050810;28;20044;-66
2022/11/21 02:17:19;;;;;;;37.08;13.13;;;;;;;2.75;76.74;99859.66;5050718;28;20055;-65
2022/11/21 02:19:52;;;;;;;21.20;11.65;;;;;;;2.82;76.93;99861.13;5040470;28;20416;-65
2022/11/21 02:22:26;;;;;;;27.40;12.38;;;;;;;2.87;76.71;99858.38;5049727;28;20047;-65
2022/11/21 02:25:06;;;;;;;25.95;12.13;;;;;;;2.78;76.93;99856.94;5059373;28;20051;-65
2022/11/21 02:27:33;;;;;;;25.15;11.80;;;;;;;2.83;76.49;99857.66;5052828;28;20063;-65
2022/11/21 02:30:01;;;;;;;21.92;11.93;;;;;;;2.78;76.68;99858.69;5053278;28;20044;-65
2022/11/21 02:32:33;;;;;;;20.20;11.80;;;;;;;2.73;77.02;99865.78;5035421;28;20041;-65
2022/11/21 02:34:59;;;;;;;27.30;12.43;;;;;;;2.76;77.05;99874.28;5049899;28;20050;-65
2022/11/21 02:37:26;;;;;;;24.30;12.38;;;;;;;2.68;77.38;99875.44;5051182;28;20044;-66
2022/11/21 02:39:53;;;;;;;25.05;12.00;;;;;;;2.78;77.34;99874.22;5040260;28;20496;-66
2022/11/21 02:42:26;;;;;;;24.35;11.50;;;;;;;2.57;77.60;99873.22;5050365;28;20040;-66
2022/11/21 02:45:00;;;;;;;19.65;11.38;;;;;;;2.81;77.09;99864.59;5042048;27;20063;-66
2022/11/21 02:47:28;;;;;;;20.35;11.38;;;;;;;2.83;77.02;99860.25;5051168;27;20504;-66
2022/11/21 02:50:00;;;;;;;27.05;11.88;;;;;;;2.78;76.97;99862.13;5049448;27;20495;-66
2022/11/21 02:52:27;;;;;;;26.40;12.48;;;;;;;2.88;76.77;99863.50;5060386;28;20040;-66
2022/11/21 02:54:53;;;;;;;25.33;12.43;;;;;;;2.81;76.80;99858.59;5070975;28;20044;-66
2022/11/21 02:57:21;;;;;;;23.13;11.65;;;;;;;2.84;76.90;99853.31;5058324;28;20483;-66
2022/11/21 02:59:47;;;;;;;31.38;12.95;;;;;;;2.79;76.74;99860.38;5041124;28;20397;-66
2022/11/21 03:02:14;;;;;;;21.50;11.48;;;;;;;2.82;76.66;99848.19;5049491;28;20406;-66
2022/11/21 03:04:40;;;;;;;22.85;11.75;;;;;;;2.93;76.35;99855.59;5050177;27;20094;-66
2022/11/21 03:07:07;;;;;;;25.00;12.27;;;;;;;2.86;76.36;99854.09;5038885;27;20077;-66
2022/11/21 03:09:33;;;;;;;23.52;11.80;;;;;;;2.86;76.41;99864.47;5049289;27;20487;-66
2022/11/21 03:11:59;;;;;;;24.98;11.88;;;;;;;2.59;77.17;99861.03;5050618;27;20054;-66
2022/11/21 03:14:27;;;;;;;22.88;11.00;;;;;;;2.75;76.97;99857.06;5039919;28;20052;-66
2022/11/21 03:16:54;;;;;;;28.23;13.10;;;;;;;2.90;76.75;99864.31;5048908;28;20053;-66
2022/11/21 03:19:20;;;;;;;28.55;12.20;;;;;;;2.82;76.63;99866.31;5064358;28;20048;-66
2022/11/21 03:21:46;;;;;;;24.02;11.60;;;;;;;2.85;76.71;99863.59;5040350;28;20045;-66
2022/11/21 03:24:13;;;;;;;25.77;12.60;;;;;;;2.74;76.68;99868.31;5051972;28;20416;-66
2022/11/21 03:26:39;;;;;;;25.00;11.73;;;;;;;2.69;77.57;99877.13;5052449;28;20052;-66
2022/11/21 03:29:06;;;;;;;29.67;12.48;;;;;;;2.72;77.44;99870.13;5044607;28;20044;-66
2022/11/21 03:31:34;;;;;;;26.13;11.57;;;;;;;2.52;78.09;99869.06;5049413;28;20040;-66
2022/11/21 03:34:00;;;;;;;22.83;12.30;;;;;;;2.53;78.39;99871.63;5052605;28;20048;-66
2022/11/21 03:36:26;;;;;;;24.73;13.23;;;;;;;2.31;79.25;99873.19;5038940;28;20075;-66
2022/11/21 03:38:55;;;;;;;26.48;12.27;;;;;;;2.35;79.17;99880.81;5048846;28;20052;-66
2022/11/21 03:41:31;;;;;;;25.25;12.10;;;;;;;2.45;78.87;99879.63;5048947;28;20095;-66
2022/11/21 03:43:58;;;;;;;25.48;12.40;;;;;;;2.46;79.01;99877.88;5039661;28;20043;-66
2022/11/21 03:46:24;;;;;;;22.52;10.75;;;;;;;2.73;78.26;99879.59;5048224;28;20408;-66
2022/11/21 03:48:52;;;;;;;23.90;12.00;;;;;;;2.73;77.41;99877.00;5049127;28;20044;-66
2022/11/21 03:51:19;;;;;;;21.85;11.73;;;;;;;2.70;77.46;99879.66;5039312;28;20052;-66
2022/11/21 03:53:46;;;;;;;25.02;12.20;;;;;;;2.74;77.13;99880.41;5051437;28;20040;-66
2022/11/21 03:56:12;;;;;;;30.30;12.48;;;;;;;2.58;77.03;99882.66;5050700;28;20515;-66
2022/11/21 03:58:39;;;;;;;29.05;12.73;;;;;;;1.89;80.10;99889.13;5047923;28;20527;-66
2022/11/21 04:01:05;;;;;;;31.25;12.63;;;;;;;2.01;80.16;99893.09;5047865;28;20055;-65
2022/11/21 04:03:32;;;;;;;24.50;12.00;;;;;;;2.32;79.45;99895.59;5049635;28;20048;-66
2022/11/21 04:06:00;;;;;;;26.13;13.15;;;;;;;2.48;78.48;99894.19;5038801;28;20044;-66
2022/11/21 04:08:27;;;;;;;23.67;12.52;;;;;;;2.51;78.31;99896.72;5047771;28;20044;-66
2022/11/21 04:10:54;;;;;;;28.52;12.65;;;;;;;2.37;78.31;99907.47;5047820;28;20051;-65
2022/11/21 04:13:21;;;;;;;23.25;12.13;;;;;;;2.10;79.58;99903.19;5038373;28;20049;-65
2022/11/21 04:15:48;;;;;;;24.48;11.60;;;;;;;2.15;79.48;99911.63;5048586;27;20047;-65
2022/11/21 04:18:14;;;;;;;25.27;13.23;;;;;;;1.93;80.33;99915.75;5048542;28;20083;-66
2022/11/21 04:20:40;;;;;;;27.63;12.35;;;;;;;2.15;79.98;99915.94;5037369;28;20048;-66
2022/11/21 04:23:08;;;;;;;26.17;12.63;;;;;;;2.31;79.35;99912.84;5047609;28;20063;-66
2022/11/21 04:25:35;;;;;;;23.00;12.45;;;;;;;2.19;79.72;99914.97;5064838;28;20048;-66
2022/11/21 04:28:03;;;;;;;25.05;12.25;;;;;;;2.40;79.32;99916.91;5037426;28;20515;-66
2022/11/21 04:30:31;;;;;;;25.92;11.75;;;;;;;2.31;79.58;99922.34;5047183;28;20040;-66
2022/11/21 04:32:58;;;;;;;21.90;11.30;;;;;;;2.30;79.64;99929.25;5049254;27;20055;-66
2022/11/21 04:35:25;;;;;;;22.20;11.70;;;;;;;2.24;80.35;99926.88;5038616;27;20045;-66
2022/11/21 04:37:52;;;;;;;23.98;12.05;;;;;;;2.38;79.90;99929.03;5047664;27;20123;-66
2022/11/21 04:40:20;;;;;;;25.52;12.45;;;;;;;2.55;79.04;99931.09;5056029;27;20048;-66
2022/11/21 04:42:47;;;;;;;24.55;12.50;;;;;;;2.41;78.78;99928.91;5050432;28;20044;-66
2022/11/21 04:45:15;;;;;;;24.90;12.50;;;;;;;2.45;78.88;99931.38;5046838;27;20048;-66
2022/11/21 04:47:44;;;;;;;27.70;12.40;;;;;;;2.50;78.76;99936.41;5047764;28;20040;-65
2022/11/21 04:50:13;;;;;;;28.35;12.60;;;;;;;2.49;78.68;99941.63;5047171;28;20056;-65
2022/11/21 04:52:39;;;;;;;24.50;11.82;;;;;;;2.44;78.75;99934.84;5047102;28;20051;-66
2022/11/21 04:55:07;;;;;;;27.42;12.05;;;;;;;2.17;80.00;99927.97;5058520;28;20055;-66
2022/11/21 04:57:35;;;;;;;24.05;12.05;;;;;;;1.95;81.31;99932.94;5056093;28;20052;-66
2022/11/21 05:00:01;;;;;;;23.23;11.50;;;;;;;2.12;80.59;99937.59;5047337;27;20071;-66
2022/11/21 05:02:28;;;;;;;26.30;12.48;;;;;;;2.10;81.16;99935.94;5038039;27;20048;-66
2022/11/21 05:04:54;;;;;;;29.15;12.93;;;;;;;2.22;80.33;99936.41;5048524;27;20044;-66
2022/11/21 05:07:21;;;;;;;27.08;12.25;;;;;;;2.19;80.50;99935.66;5047629;27;20059;-66
2022/11/21 05:09:47;;;;;;;26.00;13.00;;;;;;;2.17;80.13;99937.44;5045121;27;20052;-66
2022/11/21 05:14:59;;;;;;;21.90;11.73;;;;;;;2.21;79.63;99936.47;5048734;27;20522;-66
2022/11/21 05:17:28;;;;;;;21.48;12.75;;;;;;;2.16;80.29;99939.19;5037993;27;20516;-66
2022/11/21 05:19:54;;;;;;;28.30;13.10;;;;;;;2.20;79.98;99950.28;5045994;28;20071;-64
2022/11/21 05:22:21;;;;;;;25.25;12.52;;;;;;;1.90;80.88;99945.13;5047592;28;20044;-65
2022/11/21 05:24:47;;;;;;;22.05;11.68;;;;;;;1.99;80.53;99940.59;5039200;27;20044;-65
2022/11/21 05:27:14;;;;;;;23.85;12.50;;;;;;;2.05;80.67;99951.59;5059629;28;20051;-65
2022/11/21 05:29:40;;;;;;;25.80;12.35;;;;;;;2.18;79.68;99949.50;5051355;27;20507;-66
2022/11/21 05:32:08;;;;;;;23.13;12.55;;;;;;;2.02;80.30;99950.84;5038422;27;20047;-66
2022/11/21 05:34:35;;;;;;;21.08;12.30;;;;;;;1.51;82.43;99955.75;5046819;27;20049;-66
2022/11/21 05:37:01;;;;;;;23.98;12.82;;;;;;;1.51;82.46;99954.00;5047963;27;20446;-65
2022/11/21 05:39:28;;;;;;;22.45;11.20;;;;;;;1.48;83.03;99958.41;5037671;28;20047;-65
2022/11/21 05:41:54;;;;;;;23.70;12.15;;;;;;;1.65;82.18;99949.31;5052918;27;20047;-66
2022/11/21 05:44:20;;;;;;;28.40;12.52;;;;;;;1.51;82.46;99956.59;5052838;27;20053;-67
2022/11/21 05:46:46;;;;;;;31.30;13.23;;;;;;;1.93;81.16;99950.22;5036860;27;20515;-66
2022/11/21 05:49:14;;;;;;;23.08;12.35;;;;;;;1.76;80.88;99962.78;5046937;27;20053;-65
2022/11/21 05:51:41;;;;;;;25.08;12.82;;;;;;;2.01;80.37;99955.16;5047434;27;20051;-65
2022/11/21 05:54:07;;;;;;;29.08;14.38;;;;;;;1.94;79.99;99958.81;5044724;27;20056;-66
2022/11/21 05:56:34;;;;;;;24.55;12.50;;;;;;;2.07;79.84;99961.91;5052926;28;20045;-65
2022/11/21 05:59:00;;;;;;;26.50;12.02;;;;;;;2.09;79.67;99967.84;5050666;28;20650;-66
2022/11/21 06:04:10;;;;;;;28.73;13.55;;;;;;;2.06;79.83;99970.53;5051472;27;20059;-66
2022/11/21 06:06:38;;;;;;;21.70;11.18;;;;;;;2.52;78.20;99975.16;5040209;28;20492;-66
2022/11/21 06:09:05;;;;;;;27.10;13.23;;;;;;;2.53;77.40;99976.84;5049501;28;20045;-65
2022/11/21 06:11:31;;;;;;;25.60;13.25;;;;;;;2.56;77.30;99975.03;5064809;28;20056;-66
2022/11/21 06:13:58;;;;;;;26.70;12.98;;;;;;;2.54;77.39;99976.81;5041713;27;20048;-65
2022/11/21 06:16:24;;;;;;;22.92;12.57;;;;;;;2.68;76.90;99974.66;5051440;27;20047;-65
2022/11/21 06:18:52;;;;;;;26.15;12.48;;;;;;;2.90;75.71;99970.47;5049590;28;20494;-65
2022/11/21 06:21:20;;;;;;;22.40;11.70;;;;;;;2.93;75.12;99978.13;5040601;27;20066;-65
2022/11/21 06:23:51;;;;;;;26.45;11.98;;;;;;;3.06;73.98;99982.91;5053136;28;20400;-66
2022/11/21 06:26:19;;;;;;;26.55;11.60;;;;;;;2.96;74.22;99989.31;5063180;28;20542;-65
2022/11/21 06:28:48;;;;;;;21.25;11.75;;;;;;;2.73;74.89;99984.84;5041601;27;20052;-65
2022/11/21 06:31:17;;;;;;;24.23;12.23;;;;;;;2.78;74.47;99991.56;5075736;27;20054;-65
2022/11/21 06:33:45;;;;;;;20.25;11.88;;;;;;;2.80;73.70;99997.56;5056289;27;20048;-65
2022/11/21 06:36:13;;;;;;;22.65;12.27;;;;;;;2.66;74.11;99991.94;5041189;27;20044;-66
2022/11/21 06:38:39;;;;;;;24.20;12.77;;;;;;;2.60;73.76;99993.88;5059244;27;20066;-65
2022/11/21 06:41:11;;;;;;;20.70;11.35;;;;;;;2.10;75.35;99990.25;5079228;27;20052;-66
2022/11/21 06:43:38;;;;;;;23.23;11.40;;;;;;;2.41;74.57;99997.03;5060736;27;20048;-66
2022/11/21 06:46:04;;;;;;;22.27;10.93;;;;;;;2.30;74.30;100004.28;5050501;27;20044;-66
2022/11/21 06:48:31;;;;;;;22.98;11.05;;;;;;;1.99;75.24;100005.22;5042686;27;20040;-66
2022/11/21 06:50:57;;;;;;;27.00;12.18;;;;;;;2.13;74.60;100006.53;5051821;28;20119;-65
2022/11/21 06:53:24;;;;;;;25.83;11.93;;;;;;;2.07;74.21;100005.84;5061190;28;20135;-65
2022/11/21 06:55:50;;;;;;;24.00;11.90;;;;;;;2.07;74.39;100001.50;5055377;27;20036;-65
2022/11/21 06:58:18;;;;;;;25.00;11.50;;;;;;;1.99;74.80;100002.63;5048201;27;20696;-66
2022/11/21 07:00:47;;;;;;;25.38;11.48;;;;;;;2.09;74.25;100004.06;5049304;27;20404;-65
2022/11/21 07:03:13;;;;;;;27.38;12.23;;;;;;;2.18;73.49;100001.22;5040457;27;20056;-66
2022/11/21 07:05:40;;;;;;;23.90;11.35;;;;;;;1.88;74.23;100001.22;5050597;27;20412;-66
2022/11/21 07:08:06;;;;;;;27.33;11.77;;;;;;;1.84;73.94;100012.53;5048774;27;20416;-65
2022/11/21 07:10:33;;;;;;;26.40;12.43;;;;;;;1.85;74.22;100014.19;5051840;27;20111;-65
2022/11/21 07:15:46;;;;;;;22.92;10.88;;;;;;;1.63;75.45;100030.31;5050336;27;20067;-66
2022/11/21 07:18:13;;;;;;;28.25;12.02;;;;;;;1.74;75.26;100029.16;5044152;27;20045;-65
2022/11/21 07:20:40;;;;;;;26.38;12.15;;;;;;;1.45;75.76;100023.91;5047513;28;20612;-65
2022/11/21 07:23:07;;;;;;;24.27;12.38;;;;;;;1.15;77.45;100027.25;5048953;27;20045;-65
2022/11/21 07:25:34;;;;;;;27.83;12.05;;;;;;;1.14;77.48;100023.88;5039658;27;20657;-65
2022/11/21 07:28:01;;;;;;;29.63;12.98;;;;;;;1.29;78.31;100022.63;5048531;27;20051;-66
2022/11/21 07:30:28;;;;;;;29.30;13.82;;;;;;;1.34;78.04;100023.34;5049398;27;20036;-65
2022/11/21 07:32:56;;;;;;;31.77;12.93;;;;;;;1.98;76.41;100016.44;5040199;27;20044;-65
2022/11/21 07:35:23;;;;;;;27.77;13.52;;;;;;;2.34;74.59;100018.81;5047670;27;20048;-65
2022/11/21 07:37:50;;;;;;;27.45;12.90;;;;;;;2.47;73.74;100021.03;5048187;28;20052;-65
2022/11/21 07:40:16;;;;;;;27.58;13.73;;;;;;;2.24;74.11;100025.16;5046768;28;20044;-65
2022/11/21 07:42:43;;;;;;;25.58;12.30;;;;;;;2.21;74.52;100027.00;5057347;27;20393;-65
2022/11/21 07:45:10;;;;;;;24.65;12.70;;;;;;;2.23;74.43;100027.78;5049166;27;20056;-66
2022/11/21 07:47:37;;;;;;;25.35;12.50;;;;;;;2.09;75.21;100038.53;5040316;27;20048;-65
2022/11/21 07:50:06;;;;;;;24.50;12.07;;;;;;;2.32;74.43;100045.63;5047054;27;20067;-65
2022/11/21 07:52:33;;;;;;;27.95;14.18;;;;;;;2.44;73.99;100042.66;5047932;27;20574;-66
2022/11/21 07:55:01;;;;;;;22.85;12.65;;;;;;;2.45;74.00;100034.03;5047729;28;20059;-66
2022/11/21 07:57:28;;;;;;;25.13;12.80;;;;;;;2.51;73.96;100040.75;5047446;28;20146;-66
2022/11/21 07:59:54;;;;;;;27.65;12.90;;;;;;;2.42;75.08;100050.50;5043903;27;20037;-65
2022/11/21 08:02:23;;;;;;;27.38;13.65;;;;;;;2.23;75.96;100045.88;5033092;27;20041;-66
2022/11/21 08:04:50;;;;;;;27.58;12.30;;;;;;;2.42;75.20;100031.53;5047361;27;20060;-65
2022/11/21 08:07:20;;;;;;;27.15;13.43;;;;;;;2.62;75.47;100036.97;5038222;28;20056;-65
2022/11/21 08:09:47;;;;;;;27.45;13.10;;;;;;;3.10;74.86;100023.38;5050612;28;20047;-65
2022/11/21 08:12:14;;;;;;;27.40;13.63;;;;;;;3.19;74.30;100033.41;5055485;27;20049;-66
2022/11/21 08:14:41;;;;;;;26.33;13.40;;;;;;;3.35;73.04;100034.59;5069757;27;20388;-66
2022/11/21 08:17:08;;;;;;;30.45;13.93;;;;;;;3.88;71.28;100036.19;5049228;27;20041;-65
2022/11/21 08:19:34;;;;;;;25.58;12.10;;;;;;;3.95;69.88;100035.97;5047097;27;20040;-66
2022/11/21 08:22:01;;;;;;;25.58;11.57;;;;;;;4.35;68.39;100033.63;5037210;27;20048;-66
2022/11/21 08:24:29;;;;;;;25.38;11.23;;;;;;;4.34;67.91;100030.16;5048097;28;20048;-66
2022/11/21 08:26:55;;;;;;;20.85;12.20;;;;;;;4.76;66.46;100047.63;5046360;28;20701;-66
2022/11/21 08:29:22;;;;;;;27.45;12.60;;;;;;;4.57;67.09;100044.03;5037016;28;20055;-67
2022/11/21 08:31:48;;;;;;;22.48;11.77;;;;;;;5.05;65.37;100049.91;5049621;27;20047;-66
2022/11/21 08:34:15;;;;;;;22.20;10.90;;;;;;;5.52;63.47;100052.31;5046841;27;20044;-67
2022/11/21 08:36:41;;;;;;;19.60;9.90;;;;;;;5.92;61.26;100046.28;5037972;28;20044;-66
2022/11/21 08:39:07;;;;;;;21.45;11.80;;;;;;;6.38;59.57;100048.53;5048011;28;20063;-66
2022/11/21 08:44:19;;;;;;;17.63;9.73;;;;;;;7.79;55.56;100055.56;5046856;27;20052;-65
2022/11/21 08:46:46;;;;;;;15.07;9.18;;;;;;;8.40;53.05;100051.50;5046432;27;20040;-65
2022/11/21 08:49:12;;;;;;;16.75;9.63;;;;;;;8.87;52.18;100051.56;5047800;27;20622;-65
2022/11/21 08:51:38;;;;;;;17.42;9.82;;;;;;;9.19;50.79;100043.59;5038469;27;20059;-66
2022/11/21 08:54:05;;;;;;;13.85;8.55;;;;;;;9.84;47.72;100043.28;5045778;27;20061;-66
2022/11/21 08:56:32;;;;;;;20.42;9.88;;;;;;;9.96;48.29;100042.56;5046575;27;20445;-65
2022/11/21 08:58:59;;;;;;;18.02;9.85;;;;;;;9.78;47.09;100045.34;5038699;27;20037;-66
2022/11/21 09:01:26;;;;;;;14.43;8.43;;;;;;;9.92;46.75;100043.66;5046543;27;20051;-67
2022/11/21 09:03:52;;;;;;;13.30;7.97;;;;;;;10.42;45.54;100036.22;5047012;28;20048;-66
2022/11/21 09:06:19;;;;;;;11.85;7.10;;;;;;;10.60;44.43;100045.56;5038647;27;20044;-66
2022/11/21 09:08:45;;;;;;;11.10;7.78;;;;;;;10.96;45.49;100038.91;5046804;27;20077;-66
2022/11/21 09:11:11;;;;;;;12.02;7.57;;;;;;;10.77;44.29;100043.66;5060149;27;20511;-65
2022/11/21 09:13:38;;;;;;;13.73;7.38;;;;;;;10.67;43.71;100043.41;5039324;28;20394;-65
2022/11/21 09:18:52;;;;;;;10.60;6.93;;;;;;;10.58;44.62;100044.81;5037376;27;20464;-64
2022/11/21 09:21:20;;;;;;;11.52;7.60;;;;;;;10.95;44.31;100043.31;5046933;27;20071;-64
2022/11/21 09:23:46;;;;;;;10.38;6.85;;;;;;;11.23;44.38;100050.25;5047869;27;20048;-64
2022/11/21 09:26:13;;;;;;;12.65;7.55;;;;;;;11.23;43.24;100052.88;5037209;27;20048;-64
2022/11/21 09:28:40;;;;;;;13.20;6.45;;;;;;;11.28;41.85;100047.31;5046982;27;20048;-64
2022/11/21 09:31:08;;;;;;;9.80;7.03;;;;;;;11.69;42.70;100056.78;5047553;27;20688;-64
2022/11/21 09:33:35;;;;;;;12.60;7.75;;;;;;;11.84;41.62;100044.41;5040933;27;20137;-64
2022/11/21 09:36:02;;;;;;;10.90;8.25;;;;;;;11.26;42.29;100057.94;5050306;27;20048;-64
2022/11/21 09:38:28;;;;;;;11.18;7.40;;;;;;;11.56;42.39;100063.78;5052175;27;20476;-64
2022/11/21 09:41:50;;;;;;;12.48;7.50;;;;;;;11.28;41.89;100077.03;5045597;27;20493;-64
2022/11/21 09:44:02;;;;;;;17.63;7.78;;;;;;;10.92;42.66;100080.25;5056384;27;20459;-64
2022/11/21 09:46:37;;;;;;;12.50;7.43;;;;;;;11.65;42.48;100080.72;5059056;28;20048;-64
2022/11/21 09:49:07;;;;;;;12.25;7.45;;;;;;;12.05;41.81;100084.16;5046384;27;20048;-64
2022/11/21 09:51:37;;;;;;;11.05;7.72;;;;;;;12.13;40.14;100071.34;5048280;27;20152;-64
2022/11/21 09:54:11;;;;;;;11.48;7.53;;;;;;;12.11;40.51;100078.50;5051495;28;20119;-65
2022/11/21 09:56:41;;;;;;;11.05;6.93;;;;;;;11.97;41.35;100086.47;5040184;27;20049;-65
2022/11/21 09:59:19;;;;;;;12.48;7.57;;;;;;;12.51;39.83;100081.84;5050109;28;20075;-65
2022/11/21 10:01:47;;;;;;;10.23;7.75;;;;;;;12.36;40.41;100075.84;5041129;28;20045;-65
2022/11/21 10:04:14;;;;;;;15.52;8.07;;;;;;;11.74;40.99;100080.16;5050810;28;20044;-66
2022/11/21 10:06:46;;;;;;;13.82;7.55;;;;;;;11.75;41.57;100083.63;5043171;28;20037;-66
2022/11/21 10:09:24;;;;;;;13.15;8.45;;;;;;;11.66;41.18;100085.03;5026140;28;20040;-66
2022/11/21 10:14:56;;;;;;;13.63;7.70;;;;;;;11.14;42.30;100080.56;5050152;27;20055;-66
2022/11/21 10:17:31;;;;;;;17.00;8.23;;;;;;;9.97;45.32;100091.38;5082729;27;20682;-66
2022/11/21 10:20:12;;;;;;;12.73;7.13;;;;;;;9.57;46.22;100092.88;5051180;27;20044;-67
2022/11/21 10:22:55;;;;;;;13.85;7.47;;;;;;;9.91;46.75;100094.34;5050418;28;20044;-66
2022/11/21 10:25:24;;;;;;;15.65;7.97;;;;;;;9.92;46.65;100093.41;5049621;28;20044;-66
2022/11/21 10:27:54;;;;;;;15.73;9.20;;;;;;;9.04;49.21;100085.44;5051286;28;20496;-66
2022/11/21 10:30:21;;;;;;;15.07;8.27;;;;;;;9.07;49.47;100080.88;5039905;28;20075;-66
2022/11/21 10:32:53;;;;;;;12.85;7.68;;;;;;;9.61;48.32;100071.66;5048865;27;20408;-66
2022/11/21 10:35:22;;;;;;;21.83;8.83;;;;;;;9.34;48.46;100077.66;5050074;27;20048;-66
2022/11/21 10:37:54;;;;;;;15.65;8.18;;;;;;;9.35;47.09;100066.25;5051555;28;20532;-66
2022/11/21 10:40:33;;;;;;;18.75;7.95;;;;;;;9.75;47.82;100071.69;5058036;28;20048;-66
2022/11/21 10:45:15;;;;;;;17.25;8.88;;;;;;;9.20;48.86;100070.59;5047045;28;20094;-66
2022/11/21 10:45:52;;;;;;;13.65;7.88;;;;;;;9.01;50.25;100068.16;5062398;28;20122;-66
2022/11/21 10:48:19;;;;;;;18.77;8.63;;;;;;;9.46;49.08;100075.16;5092710;27;20413;-66
2022/11/21 10:51:12;;;;;;;18.58;8.50;;;;;;;8.85;50.06;100074.31;5078254;27;20047;-66
2022/11/21 10:56:25;;;;;;;13.90;8.13;;;;;;;7.81;53.85;100071.13;5054016;28;20117;-66
2022/11/21 10:58:58;;;;;;;19.73;9.45;;;;;;;8.06;54.27;100068.06;5062329;27;20047;-66
2022/11/21 11:01:26;;;;;;;15.40;8.00;;;;;;;7.93;53.80;100059.22;5050227;27;20052;-66
2022/11/21 11:04:16;;;;;;;13.30;7.63;;;;;;;8.38;52.55;100056.00;5040460;27;20048;-67
2022/11/21 11:06:45;;;;;;;14.55;8.00;;;;;;;8.64;51.00;100071.97;5050654;28;20508;-66
2022/11/21 11:09:27;;;;;;;16.20;8.43;;;;;;;8.38;51.22;100069.91;5039385;28;20505;-66
2022/11/21 11:11:54;;;;;;;14.73;8.00;;;;;;;8.32;51.69;100062.38;5050523;27;20044;-66
2022/11/21 11:14:31;;;;;;;16.48;8.68;;;;;;;8.23;51.47;100066.28;5039549;28;20496;-66
2022/11/21 11:16:58;;;;;;;14.18;7.35;;;;;;;8.50;52.13;100042.28;5048386;27;20037;-66
2022/11/21 11:19:28;;;;;;;12.73;6.55;;;;;;;8.72;50.96;100042.78;5050389;27;20044;-66
2022/11/21 11:21:56;;;;;;;13.65;7.13;;;;;;;8.85;50.31;100045.56;5049323;27;20404;-66
2022/11/21 11:24:25;;;;;;;14.25;7.57;;;;;;;9.20;51.60;100045.25;5049360;28;20121;-66
2022/11/21 11:26:57;;;;;;;15.05;7.72;;;;;;;9.26;48.41;100044.91;5040213;27;20036;-66
2022/11/21 11:29:25;;;;;;;17.23;8.13;;;;;;;8.22;52.98;100041.09;5048843;27;20040;-66
2022/11/21 11:31:55;;;;;;;18.08;8.40;;;;;;;7.80;53.29;100038.94;5049847;27;20044;-66
2022/11/21 11:34:23;;;;;;;16.33;8.68;;;;;;;7.32;53.77;100041.41;5040248;27;20059;-66
2022/11/21 11:37:02;;;;;;;13.57;7.20;;;;;;;7.86;54.09;100042.19;5047863;27;20590;-66
2022/11/21 11:39:39;;;;;;;18.27;7.07;;;;;;;7.70;52.36;100039.50;5025953;28;20656;-66
2022/11/21 11:48:16;;;;;;;15.23;7.63;;;;;;;7.58;54.36;100051.41;5048887;27;20106;-66
2022/11/21 11:50:46;;;;;;;16.92;7.50;;;;;;;7.60;53.69;100044.34;5047833;28;20041;-66
2022/11/21 11:53:18;;;;;;;14.70;8.38;;;;;;;7.89;53.11;100037.63;5039671;28;20412;-66
2022/11/21 11:55:51;;;;;;;18.80;8.80;;;;;;;7.53;53.90;100042.13;5046758;28;20047;-66